createdAt,value
2018-09-26T08:21:14.607Z,10.00
2018-09-26T08:23:48.634Z,10.10
2018-09-26T08:26:19.202Z,10.20
2018-09-26T08:28:50.800Z,10.30
2018-09-26T08:31:22.353Z,10.50
2018-09-26T08:33:52.617Z,10.60
2018-09-26T08:36:23.032Z,10.80
2018-09-26T08:38:53.818Z,10.90
2018-09-26T08:41:24.422Z,10.90
2018-09-26T08:43:54.529Z,10.90
2018-09-26T08:46:25.005Z,10.90
2018-09-26T08:48:55.276Z,10.90
2018-09-26T08:51:25.621Z,11.00
2018-09-26T08:53:56.481Z,10.90
2018-09-26T08:56:27.661Z,11.00
2018-09-26T08:58:58.525Z,11.10
2018-09-26T09:01:33.819Z,11.20
2018-09-26T09:04:05.102Z,11.40
2018-09-26T09:06:35.381Z,11.60
2018-09-26T09:09:07.501Z,11.90
2018-09-26T09:11:38.837Z,12.20
2018-09-26T09:14:10.536Z,12.50
2018-09-26T09:16:40.795Z,12.70
2018-09-26T09:19:10.922Z,12.80
2018-09-26T09:21:40.980Z,12.80
2018-09-26T09:24:11.160Z,12.80
2018-09-26T09:26:41.215Z,12.90
2018-09-26T09:29:11.377Z,12.90
2018-09-26T09:31:41.476Z,13.00
2018-09-26T09:34:11.569Z,13.20
2018-09-26T09:36:41.752Z,13.50
2018-09-26T09:39:11.703Z,13.90
2018-09-26T09:41:41.917Z,13.90
2018-09-26T09:44:12.072Z,14.10
2018-09-26T09:46:42.040Z,14.20
2018-09-26T09:49:12.372Z,14.50
2018-09-26T09:51:42.534Z,14.70
2018-09-26T09:54:12.643Z,14.90
2018-09-26T09:56:42.712Z,15.00
2018-09-26T09:59:12.642Z,15.20
2018-09-26T10:01:42.787Z,15.30
2018-09-26T10:04:12.759Z,15.40
2018-09-26T10:06:43.226Z,15.70
2018-09-26T10:09:13.457Z,15.90
2018-09-26T10:11:47.162Z,16.10
2018-09-26T10:14:25.660Z,16.20
2018-09-26T10:16:58.097Z,16.40
2018-09-26T10:19:29.154Z,16.40
2018-09-26T10:21:59.583Z,16.30
2018-09-26T10:24:30.188Z,16.20
2018-09-26T10:27:00.904Z,16.30
2018-09-26T10:29:31.394Z,16.30
2018-09-26T10:32:02.069Z,16.30
2018-09-26T10:34:32.730Z,16.50
2018-09-26T10:37:03.244Z,16.50
2018-09-26T10:39:33.800Z,16.50
2018-09-26T10:42:04.625Z,16.40
2018-09-26T10:44:35.135Z,16.40
2018-09-26T10:47:05.693Z,16.60
2018-09-26T10:49:37.124Z,16.90
2018-09-26T10:52:07.629Z,17.10
2018-09-26T10:54:38.128Z,17.30
2018-09-26T10:57:08.931Z,17.50
2018-09-26T10:59:39.589Z,17.50
2018-09-26T11:02:10.672Z,17.60
2018-09-26T11:04:41.351Z,17.70
2018-09-26T11:07:12.235Z,17.80
2018-09-26T11:09:45.962Z,17.90
2018-09-26T11:12:18.595Z,17.90
2018-09-26T11:14:49.071Z,17.90
2018-09-26T11:17:19.532Z,17.90
2018-09-26T11:19:50.319Z,18.00
2018-09-26T11:22:20.836Z,18.10
2018-09-26T11:24:51.793Z,18.10
2018-09-26T11:27:22.295Z,18.20
2018-09-26T11:29:53.078Z,18.40
2018-09-26T11:32:23.657Z,18.30
2018-09-26T11:34:54.228Z,18.30
2018-09-26T11:37:24.872Z,18.20
2018-09-26T11:39:55.528Z,18.40
2018-09-26T11:42:26.021Z,18.40
2018-09-26T11:44:56.531Z,18.20
2018-09-26T11:47:27.206Z,18.30
2018-09-26T11:49:57.934Z,18.30
2018-09-26T11:52:28.703Z,18.40
2018-09-26T11:54:59.385Z,18.50
2018-09-26T11:57:29.883Z,18.70
2018-09-26T12:00:00.661Z,18.70
2018-09-26T12:02:30.961Z,18.60
2018-09-26T12:05:01.555Z,18.40
2018-09-26T12:07:32.258Z,18.40
2018-09-26T12:10:02.887Z,18.40
2018-09-26T12:12:33.988Z,18.40
2018-09-26T12:15:04.466Z,18.50
2018-09-26T12:17:36.247Z,18.60
2018-09-26T12:20:08.058Z,18.80
2018-09-26T12:22:38.650Z,18.90
2018-09-26T12:25:10.047Z,18.90
2018-09-26T12:27:40.797Z,19.00
2018-09-26T12:30:11.667Z,19.00
2018-09-26T12:32:42.353Z,18.80
2018-09-26T12:35:13.380Z,18.80
2018-09-26T12:43:46.083Z,18.60
2018-09-26T12:46:17.486Z,18.80
2018-09-26T12:55:06.681Z,18.50
2018-09-26T12:57:37.756Z,18.40
2018-09-26T13:00:09.517Z,18.40
2018-09-26T13:02:40.152Z,18.40
2018-09-26T13:05:11.577Z,18.40
2018-09-26T13:07:42.122Z,18.40
2018-09-26T13:10:12.637Z,18.40
2018-09-26T13:12:43.363Z,18.40
2018-09-26T13:15:13.918Z,18.60
2018-09-26T13:17:44.466Z,18.70
2018-09-26T13:20:15.039Z,18.70
2018-09-26T13:22:46.058Z,18.80
2018-09-26T13:25:16.961Z,18.80
2018-09-26T13:27:47.657Z,18.80
2018-09-26T13:30:18.279Z,19.00
2018-09-26T13:32:48.905Z,18.90
2018-09-26T13:35:19.388Z,18.80
2018-09-26T13:37:50.084Z,18.70
2018-09-26T13:40:21.555Z,18.70
2018-09-26T13:42:52.334Z,18.60
2018-09-26T13:45:22.767Z,18.60
2018-09-26T13:47:53.218Z,18.60
2018-09-26T13:50:23.804Z,18.60
2018-09-26T13:52:54.654Z,18.60
2018-09-26T13:55:25.103Z,18.60
2018-09-26T13:57:55.550Z,18.60
2018-09-26T14:00:26.530Z,18.70
2018-09-26T14:02:57.174Z,18.60
2018-09-26T14:05:27.628Z,18.70
2018-09-26T14:07:58.048Z,18.70
2018-09-26T14:10:28.839Z,18.70
2018-09-26T14:12:59.861Z,18.70
2018-09-26T14:15:30.814Z,18.60
2018-09-26T14:18:01.281Z,18.40
2018-09-26T14:20:32.177Z,18.40
2018-09-26T14:23:02.891Z,18.40
2018-09-26T14:25:33.577Z,18.30
2018-09-26T14:28:04.080Z,18.20
2018-09-26T14:30:35.019Z,18.20
2018-09-26T14:33:05.593Z,18.10
2018-09-26T14:35:36.346Z,18.10
2018-09-26T14:38:07.117Z,18.10
2018-09-26T14:40:38.123Z,18.00
2018-09-26T14:43:08.633Z,18.00
2018-09-26T14:45:39.193Z,17.90
2018-09-26T14:48:09.928Z,17.80
2018-09-26T14:50:40.724Z,17.80
2018-09-26T14:53:11.430Z,17.70
2018-09-26T14:55:42.104Z,17.60
2018-09-26T14:58:12.719Z,17.40
2018-09-26T15:00:43.291Z,17.40
2018-09-26T15:03:13.778Z,17.30
2018-09-26T15:05:44.304Z,17.30
2018-09-26T15:08:14.723Z,17.30
2018-09-26T15:10:45.753Z,17.30
2018-09-26T15:13:16.234Z,17.40
2018-09-26T15:15:46.916Z,17.40
2018-09-26T15:18:17.688Z,17.40
2018-09-26T15:20:48.246Z,17.40
2018-09-26T15:23:18.904Z,17.40
2018-09-26T15:25:49.360Z,17.30
2018-09-26T15:28:19.864Z,17.30
2018-09-26T15:30:50.620Z,17.30
2018-09-26T15:33:21.064Z,17.30
2018-09-26T15:35:51.524Z,17.20
2018-09-26T15:38:22.051Z,17.00
2018-09-26T15:40:52.620Z,16.80
2018-09-26T15:43:23.108Z,16.60
2018-09-26T15:45:53.573Z,16.50
2018-09-26T15:48:24.060Z,16.40
2018-09-26T15:50:54.702Z,16.20
2018-09-26T15:53:25.204Z,16.20
2018-09-26T15:55:55.670Z,16.10
2018-09-26T15:58:26.199Z,15.90
2018-09-26T16:00:56.831Z,15.70
2018-09-26T16:03:27.283Z,15.50
2018-09-26T16:05:57.705Z,15.20
2018-09-26T16:08:27.821Z,14.90
2018-09-26T16:10:58.275Z,14.70
2018-09-26T16:13:28.384Z,14.50
2018-09-26T16:15:58.272Z,14.30
2018-09-26T16:18:28.370Z,14.10
2018-09-26T16:20:58.283Z,13.90
2018-09-26T16:23:28.426Z,13.80
2018-09-26T16:25:58.698Z,13.60
2018-09-26T16:28:28.917Z,13.50
2018-09-26T16:30:58.807Z,13.40
2018-09-26T16:33:28.830Z,13.20
2018-09-26T16:35:58.749Z,13.10
2018-09-26T16:38:29.203Z,12.90
2018-09-26T16:40:59.431Z,12.80
2018-09-26T16:43:30.099Z,12.70
2018-09-26T16:46:00.061Z,12.50
2018-09-26T16:48:30.017Z,12.30
2018-09-26T16:50:59.908Z,12.10
2018-09-26T16:53:31.023Z,11.90
2018-09-26T16:56:01.508Z,11.70
2018-09-26T16:58:31.647Z,11.70
2018-09-26T17:01:01.772Z,11.50
2018-09-26T17:03:31.965Z,11.40
2018-09-26T17:06:01.954Z,11.30
2018-09-26T17:08:32.208Z,11.10
2018-09-26T17:11:02.192Z,11.00
2018-09-26T17:13:32.330Z,10.90
2018-09-26T17:16:02.261Z,10.70
2018-09-26T17:18:32.174Z,10.60
2018-09-26T17:21:02.306Z,10.50
2018-09-26T17:23:32.285Z,10.40
2018-09-26T17:26:02.251Z,10.30
2018-09-26T17:28:32.241Z,10.30
2018-09-26T17:31:02.439Z,10.20
2018-09-26T17:33:32.606Z,10.10
2018-09-26T17:36:02.677Z,10.00
2018-09-26T17:38:33.320Z,9.90
2018-09-26T17:41:03.498Z,9.80
2018-09-26T17:43:33.462Z,9.70
2018-09-26T17:46:03.681Z,9.60
2018-09-26T17:48:33.987Z,9.50
2018-09-26T17:51:03.978Z,9.40
2018-09-26T17:53:34.132Z,9.50
2018-09-26T17:56:04.108Z,9.50
2018-09-26T17:58:34.090Z,9.50
2018-09-26T18:01:04.137Z,9.50
2018-09-26T18:03:34.408Z,9.40
2018-09-26T18:06:04.763Z,9.40
2018-09-26T18:08:35.087Z,9.40
2018-09-26T18:11:05.449Z,9.40
2018-09-26T18:13:35.425Z,9.40
2018-09-26T18:16:05.482Z,9.50
2018-09-26T18:18:35.708Z,9.40
2018-09-26T18:21:06.225Z,9.40
2018-09-26T18:23:36.986Z,9.30
2018-09-26T18:26:07.495Z,9.30
2018-09-26T18:28:37.753Z,9.30
2018-09-26T18:31:08.171Z,9.30
2018-09-26T18:33:38.710Z,9.30
2018-09-26T18:36:09.427Z,9.20
2018-09-26T18:38:39.535Z,9.20
2018-09-26T18:41:09.798Z,9.10
2018-09-26T18:43:40.411Z,9.10
2018-09-26T18:46:11.030Z,9.10
2018-09-26T18:48:41.365Z,9.10
2018-09-26T18:51:12.155Z,9.10
2018-09-26T18:53:42.193Z,9.00
2018-09-26T18:56:12.239Z,9.00
2018-09-26T18:58:42.360Z,8.90
2018-09-26T19:01:12.523Z,8.70
